createdAt,value
2022-12-13T00:00:25.855Z,25.55
2022-12-13T00:03:12.119Z,21.25
2022-12-13T00:05:57.596Z,22.73
2022-12-13T00:08:43.110Z,22.63
2022-12-13T00:11:28.722Z,21.65
2022-12-13T00:14:14.711Z,23.58
2022-12-13T00:17:00.269Z,24.98
2022-12-13T00:19:47.358Z,22.77
2022-12-13T00:22:32.796Z,23.58
2022-12-13T00:25:20.443Z,20.08
2022-12-13T00:28:06.277Z,21.85
2022-12-13T00:30:51.673Z,21.60
2022-12-13T00:33:40.444Z,23.92
2022-12-13T00:36:26.512Z,21.87
2022-12-13T00:39:13.957Z,21.25
2022-12-13T00:41:59.538Z,20.85
2022-12-13T00:44:45.106Z,24.25
2022-12-13T00:47:30.788Z,22.77
2022-12-13T00:50:16.330Z,25.95
2022-12-13T00:53:02.151Z,24.05
2022-12-13T00:55:47.722Z,19.98
2022-12-13T00:58:33.351Z,22.67
2022-12-13T01:01:21.010Z,24.30
2022-12-13T01:04:07.883Z,24.02
2022-12-13T01:06:54.571Z,25.77
2022-12-13T01:09:40.003Z,28.58
2022-12-13T01:12:25.823Z,30.63
2022-12-13T01:15:11.815Z,29.25
2022-12-13T01:17:57.754Z,33.50
2022-12-13T01:20:43.807Z,30.50
2022-12-13T01:23:29.782Z,32.05
2022-12-13T01:26:21.475Z,31.40
2022-12-13T01:29:07.032Z,25.38
2022-12-13T01:31:53.328Z,26.70
2022-12-13T01:34:38.538Z,29.08
2022-12-13T01:37:26.171Z,31.02
2022-12-13T01:40:16.115Z,32.13
2022-12-13T01:43:02.673Z,31.42
2022-12-13T01:46:00.072Z,32.22
2022-12-13T01:49:05.928Z,36.08
2022-12-13T01:52:08.908Z,30.77
2022-12-13T01:55:03.815Z,31.73
2022-12-13T01:58:02.999Z,31.10
2022-12-13T02:00:49.292Z,35.08
2022-12-13T02:03:35.619Z,30.77
2022-12-13T02:06:31.810Z,33.35
2022-12-13T02:09:18.794Z,33.10
2022-12-13T02:12:04.919Z,25.30
2022-12-13T02:14:51.724Z,30.23
2022-12-13T02:17:53.190Z,35.25
2022-12-13T02:21:02.873Z,29.88
2022-12-13T02:23:57.470Z,30.45
2022-12-13T02:27:31.490Z,34.75
2022-12-13T02:30:22.445Z,30.73
2022-12-13T02:33:10.637Z,29.25
2022-12-13T02:36:11.053Z,29.33
2022-12-13T02:39:17.489Z,29.02
2022-12-13T02:42:26.697Z,32.95
2022-12-13T02:45:20.869Z,32.22
2022-12-13T02:48:10.865Z,29.17
2022-12-13T02:50:58.819Z,30.38
2022-12-13T02:53:46.221Z,32.53
2022-12-13T02:56:32.832Z,27.08
2022-12-13T02:59:18.707Z,30.23
2022-12-13T03:02:35.707Z,30.65
2022-12-13T03:06:06.206Z,27.45
2022-12-13T03:09:26.323Z,27.00
2022-12-13T03:12:54.041Z,27.77
2022-12-13T03:15:47.298Z,27.48
2022-12-13T03:18:34.075Z,27.77
2022-12-13T03:21:19.946Z,24.92
2022-12-13T03:24:06.012Z,23.63
2022-12-13T03:26:52.011Z,25.48
2022-12-13T03:29:40.543Z,25.60
2022-12-13T03:32:26.284Z,28.27
2022-12-13T03:35:21.838Z,29.35
2022-12-13T03:38:08.874Z,25.05
2022-12-13T03:40:58.420Z,26.63
2022-12-13T03:43:44.215Z,24.58
2022-12-13T03:46:29.614Z,26.40
2022-12-13T03:49:17.359Z,24.33
2022-12-13T03:52:03.267Z,22.00
2022-12-13T03:54:48.994Z,24.52
2022-12-13T03:57:34.472Z,24.90
2022-12-13T04:00:20.471Z,24.40
2022-12-13T04:03:06.874Z,22.55
2022-12-13T04:05:52.142Z,24.98
2022-12-13T04:08:38.705Z,24.63
2022-12-13T04:11:43.522Z,24.42
2022-12-13T04:14:29.092Z,25.30
2022-12-13T04:17:14.920Z,28.63
2022-12-13T04:20:00.702Z,26.17
2022-12-13T04:22:45.924Z,28.50
2022-12-13T04:25:31.490Z,25.20
2022-12-13T04:28:22.583Z,27.88
2022-12-13T04:31:08.773Z,27.63
2022-12-13T04:33:54.267Z,30.95
2022-12-13T04:36:39.655Z,30.17
2022-12-13T04:39:25.348Z,33.58
2022-12-13T04:42:20.041Z,28.42
2022-12-13T04:45:06.580Z,26.88
2022-12-13T04:47:52.146Z,30.50
2022-12-13T04:50:37.732Z,30.50
2022-12-13T04:53:23.491Z,28.55
2022-12-13T04:56:09.543Z,26.95
2022-12-13T04:58:55.229Z,26.75
2022-12-13T05:01:40.628Z,27.13
2022-12-13T05:04:32.127Z,28.45
2022-12-13T05:07:18.364Z,26.88
2022-12-13T05:10:04.536Z,27.55
2022-12-13T05:12:49.964Z,28.05
2022-12-13T05:15:39.572Z,24.67
2022-12-13T05:18:26.149Z,26.35
2022-12-13T05:21:12.623Z,27.17
2022-12-13T05:23:58.191Z,25.88
2022-12-13T05:26:43.703Z,22.95
2022-12-13T05:29:29.391Z,25.90
2022-12-13T05:32:15.482Z,25.58
2022-12-13T05:35:00.989Z,25.88
2022-12-13T05:37:46.643Z,24.55
2022-12-13T05:40:40.293Z,24.25
2022-12-13T05:43:42.643Z,26.70
2022-12-13T05:46:29.608Z,21.38
2022-12-13T05:49:15.244Z,21.58
2022-12-13T05:52:00.980Z,24.75
2022-12-13T05:54:47.067Z,25.55
2022-12-13T05:57:33.009Z,24.17
2022-12-13T06:00:29.904Z,25.58
2022-12-13T06:03:16.474Z,23.50
2022-12-13T06:06:03.395Z,27.80
2022-12-13T06:08:49.042Z,25.17
2022-12-13T06:11:34.797Z,24.17
2022-12-13T06:14:29.429Z,21.92
2022-12-13T06:17:15.191Z,23.15
2022-12-13T06:20:24.214Z,22.92
2022-12-13T06:23:10.708Z,22.10
2022-12-13T06:25:56.050Z,21.42
2022-12-13T06:28:41.800Z,19.45
2022-12-13T06:31:27.450Z,22.65
2022-12-13T06:34:14.962Z,19.05
2022-12-13T06:37:01.921Z,25.40
2022-12-13T06:39:47.757Z,23.10
2022-12-13T06:42:33.919Z,23.48
2022-12-13T06:45:20.314Z,25.05
2022-12-13T06:48:05.962Z,24.65
2022-12-13T06:50:52.994Z,24.50
2022-12-13T06:53:40.458Z,24.65
2022-12-13T06:56:26.181Z,23.63
2022-12-13T06:59:12.680Z,21.35
2022-12-13T07:02:03.190Z,21.05
2022-12-13T07:04:49.656Z,23.55
2022-12-13T07:07:35.475Z,23.65
2022-12-13T07:10:22.022Z,26.42
2022-12-13T07:13:08.867Z,26.48
2022-12-13T07:15:54.608Z,28.45
2022-12-13T07:18:47.084Z,30.85
2022-12-13T07:21:33.344Z,32.08
2022-12-13T07:24:19.051Z,29.73
2022-12-13T07:27:05.092Z,27.95
2022-12-13T07:29:50.424Z,30.10
2022-12-13T07:32:35.959Z,33.00
2022-12-13T07:35:21.627Z,29.50
2022-12-13T07:38:08.317Z,25.17
2022-12-13T07:40:57.097Z,35.40
2022-12-13T07:43:42.937Z,32.58
2022-12-13T07:46:33.490Z,35.53
2022-12-13T07:49:19.464Z,28.98
2022-12-13T07:52:11.406Z,31.77
2022-12-13T07:54:56.735Z,30.33
2022-12-13T07:57:42.296Z,40.80
2022-12-13T08:00:27.921Z,29.65
2022-12-13T08:03:24.535Z,32.33
2022-12-13T08:06:12.295Z,31.98
2022-12-13T08:08:58.343Z,31.77
2022-12-13T08:11:43.896Z,32.38
2022-12-13T08:14:29.479Z,32.88
2022-12-13T08:17:15.129Z,32.13
2022-12-13T08:20:00.863Z,30.85
2022-12-13T08:22:49.553Z,30.20
2022-12-13T08:25:35.062Z,27.00
2022-12-13T08:28:20.678Z,29.90
2022-12-13T08:31:11.490Z,28.58
2022-12-13T08:33:57.480Z,29.48
2022-12-13T08:36:43.210Z,27.83
2022-12-13T08:39:28.977Z,29.00
2022-12-13T08:42:19.234Z,26.70
2022-12-13T08:45:05.944Z,28.25
2022-12-13T08:47:51.490Z,29.50
2022-12-13T08:50:37.233Z,29.05
2022-12-13T08:53:27.878Z,29.60
2022-12-13T08:56:15.412Z,27.70
2022-12-13T08:59:01.269Z,32.30
2022-12-13T09:01:47.516Z,31.17
2022-12-13T09:04:39.825Z,31.08
2022-12-13T09:07:25.313Z,31.00
2022-12-13T09:10:26.671Z,34.80
2022-12-13T09:13:13.386Z,30.83
2022-12-13T09:16:23.545Z,37.55
2022-12-13T09:19:25.258Z,30.02
2022-12-13T09:22:14.706Z,29.05
2022-12-13T09:25:02.468Z,32.90
2022-12-13T09:27:48.515Z,29.20
2022-12-13T09:30:35.583Z,29.92
2022-12-13T09:33:30.123Z,30.05
2022-12-13T09:36:19.119Z,30.27
2022-12-13T09:39:05.275Z,34.33
2022-12-13T09:42:01.440Z,31.00
2022-12-13T09:45:03.325Z,34.20
2022-12-13T09:47:51.419Z,31.77
2022-12-13T09:50:40.427Z,32.17
2022-12-13T09:53:33.784Z,31.58
2022-12-13T09:56:22.092Z,28.98
2022-12-13T09:59:14.007Z,29.73
2022-12-13T10:02:22.478Z,29.63
2022-12-13T10:05:38.383Z,29.88
2022-12-13T10:08:33.073Z,32.00
2022-12-13T10:11:20.238Z,28.58
2022-12-13T10:14:16.935Z,30.63
2022-12-13T10:17:08.096Z,26.05
2022-12-13T10:19:53.875Z,28.58
2022-12-13T10:22:39.405Z,30.80
2022-12-13T10:25:51.073Z,28.00
2022-12-13T10:28:37.613Z,28.67
2022-12-13T10:31:23.525Z,28.90
2022-12-13T10:34:21.325Z,30.83
2022-12-13T10:37:24.419Z,29.35
2022-12-13T10:40:31.986Z,25.48
2022-12-13T10:43:23.026Z,28.90
2022-12-13T10:46:25.011Z,27.98
2022-12-13T10:49:18.785Z,29.30
2022-12-13T10:52:05.171Z,26.98
2022-12-13T10:54:52.473Z,26.90
2022-12-13T10:57:56.178Z,27.15
2022-12-13T11:00:44.919Z,26.35
2022-12-13T11:03:33.067Z,26.27
2022-12-13T11:06:18.917Z,26.02
2022-12-13T11:09:28.554Z,31.65
2022-12-13T11:12:16.544Z,27.88
2022-12-13T11:15:07.283Z,30.17
2022-12-13T11:18:00.048Z,28.27
2022-12-13T11:21:07.669Z,26.27
2022-12-13T11:23:56.834Z,26.15
2022-12-13T11:26:57.809Z,25.30
2022-12-13T11:29:49.777Z,25.35
2022-12-13T11:32:58.891Z,28.60
2022-12-13T11:36:26.629Z,27.83
2022-12-13T11:39:26.826Z,23.55
2022-12-13T11:42:22.510Z,26.77
2022-12-13T11:45:24.467Z,24.80
2022-12-13T11:48:10.045Z,26.45
2022-12-13T11:50:56.724Z,26.52
2022-12-13T11:54:08.834Z,25.75
2022-12-13T11:57:00.335Z,27.38
2022-12-13T11:59:54.805Z,26.98
2022-12-13T12:02:55.720Z,26.38
2022-12-13T12:05:56.396Z,26.58
2022-12-13T12:08:57.674Z,29.67
2022-12-13T12:11:54.485Z,27.95
2022-12-13T12:15:15.178Z,26.73
2022-12-13T12:18:02.263Z,30.50
2022-12-13T12:21:07.616Z,28.13
2022-12-13T12:24:13.012Z,28.60
2022-12-13T12:27:10.643Z,23.27
2022-12-13T12:30:24.294Z,22.13
2022-12-13T12:33:29.685Z,26.70
2022-12-13T12:36:43.002Z,24.30
2022-12-13T12:39:50.411Z,26.27
2022-12-13T12:43:13.815Z,29.15
2022-12-13T12:46:15.974Z,27.80
2022-12-13T12:49:16.994Z,26.38
2022-12-13T12:52:21.383Z,24.77
2022-12-13T12:55:13.083Z,25.95
2022-12-13T12:58:20.176Z,25.90
2022-12-13T13:01:11.827Z,25.38
2022-12-13T13:04:02.048Z,24.65
2022-12-13T13:06:53.592Z,25.63
2022-12-13T13:09:47.619Z,26.43
2022-12-13T13:12:38.954Z,26.23
2022-12-13T13:15:31.659Z,28.40
2022-12-13T13:18:45.673Z,28.17
2022-12-13T13:21:31.649Z,29.25
2022-12-13T13:24:18.920Z,24.95
2022-12-13T13:27:10.214Z,28.40
2022-12-13T13:30:24.597Z,26.65
2022-12-13T13:33:49.797Z,27.60
2022-12-13T13:36:38.918Z,27.80
2022-12-13T13:39:36.415Z,29.42
2022-12-13T13:42:24.833Z,25.52
2022-12-13T13:45:22.775Z,25.98
2022-12-13T13:48:19.485Z,28.63
2022-12-13T13:51:29.756Z,23.30
2022-12-13T13:54:18.784Z,26.48
2022-12-13T13:57:10.113Z,25.75
2022-12-13T14:00:19.423Z,27.25
2022-12-13T14:03:34.124Z,27.83
2022-12-13T14:06:48.673Z,26.80
2022-12-13T14:10:22.112Z,26.38
2022-12-13T14:13:10.288Z,28.35
2022-12-13T14:16:30.609Z,26.80
2022-12-13T14:19:25.287Z,29.63
2022-12-13T14:22:17.806Z,29.00
2022-12-13T14:25:23.503Z,28.27
2022-12-13T14:28:23.329Z,31.92
2022-12-13T14:31:21.703Z,28.38
2022-12-13T14:34:28.894Z,28.83
2022-12-13T14:37:33.636Z,29.67
2022-12-13T14:40:27.503Z,31.10
2022-12-13T14:43:34.060Z,30.75
2022-12-13T14:46:20.044Z,28.23
2022-12-13T14:49:07.960Z,27.52
2022-12-13T14:52:05.500Z,23.92
2022-12-13T14:54:58.162Z,29.77
2022-12-13T14:57:53.303Z,29.88
2022-12-13T15:00:40.567Z,27.20
2022-12-13T15:03:28.267Z,27.85
2022-12-13T15:06:14.626Z,29.13
2022-12-13T15:09:00.300Z,30.73
2022-12-13T15:11:46.455Z,31.73
2022-12-13T15:14:32.180Z,29.50
2022-12-13T15:17:32.419Z,28.23
2022-12-13T15:20:31.362Z,30.88
2022-12-13T15:23:29.993Z,28.27
2022-12-13T15:26:28.610Z,28.57
2022-12-13T15:29:21.143Z,28.15
2022-12-13T15:32:13.163Z,29.55
2022-12-13T15:35:21.345Z,29.60
2022-12-13T15:38:28.597Z,35.78
2022-12-13T15:41:20.853Z,33.75
2022-12-13T15:44:24.611Z,29.45
2022-12-13T15:47:28.539Z,32.83
2022-12-13T15:50:50.324Z,30.40
2022-12-13T15:53:37.723Z,28.95
2022-12-13T15:56:31.729Z,27.83
2022-12-13T15:59:31.208Z,33.10
2022-12-13T16:02:24.446Z,29.23
2022-12-13T16:05:29.726Z,33.03
2022-12-13T16:08:35.576Z,31.55
2022-12-13T16:11:39.148Z,31.42
2022-12-13T16:14:30.837Z,29.90
2022-12-13T16:17:19.745Z,25.20
2022-12-13T16:20:14.531Z,30.52
2022-12-13T16:23:00.823Z,30.27
2022-12-13T16:25:54.564Z,32.17
2022-12-13T16:28:40.853Z,30.70
2022-12-13T16:31:31.362Z,29.83
2022-12-13T16:34:18.087Z,30.45
2022-12-13T16:37:08.922Z,32.55
2022-12-13T16:40:36.917Z,28.40
2022-12-13T16:43:32.966Z,28.17
2022-12-13T16:47:16.102Z,33.17
2022-12-13T16:49:27.878Z,30.45
2022-12-13T16:52:13.663Z,31.77
2022-12-13T16:55:00.583Z,27.20
2022-12-13T16:57:56.492Z,33.00
2022-12-13T17:00:43.878Z,30.90
2022-12-13T17:03:29.982Z,32.90
2022-12-13T17:06:20.191Z,30.25
2022-12-13T17:09:06.183Z,31.77
2022-12-13T17:11:51.964Z,34.33
2022-12-13T17:14:37.362Z,33.95
2022-12-13T17:17:22.973Z,35.30
2022-12-13T17:20:11.029Z,36.45
2022-12-13T17:22:56.571Z,34.45
2022-12-13T17:25:42.514Z,37.65
2022-12-13T17:28:28.051Z,38.10
2022-12-13T17:31:13.965Z,37.25
2022-12-13T17:33:59.981Z,38.75
2022-12-13T17:36:45.990Z,39.10
2022-12-13T17:39:31.876Z,32.65
2022-12-13T17:42:17.997Z,35.17
2022-12-13T17:45:03.840Z,32.50
2022-12-13T17:47:50.884Z,37.60
2022-12-13T17:50:39.942Z,37.10
2022-12-13T17:53:26.426Z,36.92
2022-12-13T17:56:15.859Z,37.50
2022-12-13T17:59:01.453Z,38.75
2022-12-13T18:01:47.345Z,37.33
2022-12-13T18:04:32.997Z,37.30
2022-12-13T18:07:19.099Z,34.17
2022-12-13T18:10:05.547Z,36.15
2022-12-13T18:12:51.069Z,32.95
2022-12-13T18:15:36.989Z,34.67
2022-12-13T18:18:22.945Z,37.80
2022-12-13T18:21:14.939Z,33.67
2022-12-13T18:24:01.054Z,34.30
2022-12-13T18:26:46.453Z,30.15
2022-12-13T18:29:33.284Z,34.75
2022-12-13T18:32:19.087Z,33.35
2022-12-13T18:35:04.982Z,36.58
2022-12-13T18:37:52.007Z,37.88
2022-12-13T18:40:37.793Z,35.50
2022-12-13T18:43:24.953Z,33.95
2022-12-13T18:46:12.062Z,31.65
2022-12-13T18:48:58.214Z,34.50
2022-12-13T18:51:43.844Z,33.38
2022-12-13T18:54:29.684Z,32.10
2022-12-13T18:57:15.066Z,40.75
2022-12-13T19:00:00.565Z,31.70
2022-12-13T19:02:46.302Z,31.65
2022-12-13T19:05:32.359Z,36.10
2022-12-13T19:08:17.879Z,36.25
2022-12-13T19:11:04.271Z,38.97
2022-12-13T19:13:50.402Z,30.60
2022-12-13T19:16:36.197Z,29.92
2022-12-13T19:19:22.219Z,28.88
2022-12-13T19:22:07.841Z,29.02
2022-12-13T19:24:53.314Z,26.38
2022-12-13T19:27:39.016Z,26.08
2022-12-13T19:30:24.538Z,27.52
2022-12-13T19:33:10.096Z,34.30
2022-12-13T19:35:55.895Z,33.97
2022-12-13T19:38:41.958Z,28.13
2022-12-13T19:41:28.021Z,32.88
2022-12-13T19:44:13.494Z,33.00
2022-12-13T19:47:00.000Z,32.90
2022-12-13T19:49:45.741Z,28.30
2022-12-13T19:52:34.106Z,30.73
2022-12-13T19:55:19.496Z,31.67
2022-12-13T19:58:05.257Z,31.80
2022-12-13T20:00:51.822Z,36.28
2022-12-13T20:03:42.889Z,33.45
2022-12-13T20:06:30.259Z,32.05
2022-12-13T20:09:16.000Z,33.40
2022-12-13T20:12:01.366Z,33.05
2022-12-13T20:14:47.155Z,34.45
2022-12-13T20:17:32.998Z,32.38
2022-12-13T20:20:19.547Z,33.15
2022-12-13T20:23:05.796Z,33.45
2022-12-13T20:26:03.399Z,31.25
2022-12-13T20:28:50.135Z,33.28
2022-12-13T20:31:38.426Z,31.77
2022-12-13T20:34:24.268Z,31.17
2022-12-13T20:37:10.127Z,30.02
2022-12-13T20:39:55.804Z,31.55
2022-12-13T20:42:41.401Z,32.33
2022-12-13T20:45:27.370Z,32.75
2022-12-13T20:48:13.013Z,35.70
2022-12-13T20:51:00.350Z,29.65
2022-12-13T20:53:47.883Z,32.17
2022-12-13T20:56:35.606Z,34.15
2022-12-13T20:59:21.275Z,36.45
2022-12-13T21:02:06.977Z,35.40
2022-12-13T21:04:52.561Z,35.45
2022-12-13T21:07:56.934Z,33.25
2022-12-13T21:10:42.342Z,33.03
2022-12-13T21:13:28.503Z,34.10
2022-12-13T21:16:14.751Z,35.17
2022-12-13T21:19:01.140Z,34.63
2022-12-13T21:21:47.438Z,33.78
2022-12-13T21:24:33.542Z,32.03
2022-12-13T21:27:19.773Z,41.00
2022-12-13T21:30:05.836Z,35.45
2022-12-13T21:32:53.031Z,36.45
2022-12-13T21:35:38.941Z,34.45
2022-12-13T21:38:24.554Z,36.85
2022-12-13T21:41:11.467Z,38.30
2022-12-13T21:43:57.393Z,36.50
2022-12-13T21:49:49.206Z,35.17
2022-12-13T21:52:35.533Z,33.92
2022-12-13T21:58:44.939Z,32.80
2022-12-13T22:01:51.603Z,30.58
2022-12-13T22:04:40.162Z,33.70
2022-12-13T22:07:31.546Z,31.08
2022-12-13T22:10:17.361Z,32.05
2022-12-13T22:13:02.909Z,33.22
2022-12-13T22:15:48.639Z,29.08
2022-12-13T22:18:34.201Z,35.83
2022-12-13T22:21:20.039Z,32.80
2022-12-13T22:24:06.133Z,32.30
2022-12-13T22:26:51.633Z,31.10
2022-12-13T22:29:37.249Z,31.80
2022-12-13T22:32:23.293Z,32.50
2022-12-13T22:35:09.195Z,32.42
2022-12-13T22:37:57.688Z,33.30
2022-12-13T22:40:47.017Z,32.35
2022-12-13T22:43:36.581Z,31.60
2022-12-13T22:46:22.072Z,32.92
2022-12-13T22:49:08.833Z,33.35
2022-12-13T22:51:54.327Z,30.98
2022-12-13T22:54:39.891Z,35.58
2022-12-13T22:57:25.781Z,29.30
2022-12-13T23:00:11.879Z,33.55
2022-12-13T23:02:57.266Z,32.42
2022-12-13T23:05:43.888Z,29.20
2022-12-13T23:08:29.358Z,34.13
2022-12-13T23:11:34.222Z,36.03
2022-12-13T23:14:25.019Z,30.35
2022-12-13T23:17:10.751Z,32.17
2022-12-13T23:19:56.372Z,30.10
2022-12-13T23:22:42.145Z,30.77
2022-12-13T23:25:27.654Z,27.00
2022-12-13T23:28:13.295Z,28.33
2022-12-13T23:31:01.581Z,29.65
2022-12-13T23:33:47.425Z,31.38
2022-12-13T23:36:34.088Z,28.65
2022-12-13T23:39:19.769Z,30.90
2022-12-13T23:42:05.461Z,26.77
2022-12-13T23:44:50.943Z,30.63
2022-12-13T23:47:36.496Z,29.35
2022-12-13T23:50:22.034Z,29.15
2022-12-13T23:53:07.894Z,27.52
2022-12-13T23:55:53.524Z,26.98
2022-12-13T23:58:40.639Z,29.73
